Time;durP1;ratioP1;P1;durP2;ratioP2;P2;SDS_P1;SDS_P2;PMS_P1;PMS_P2;Temp;Humidity;BMP_temperature;BMP_pressure;BME280_temperature;BME280_humidity;BME280_pressure;Samples;Min_cycle;Max_cycle;Signal;HPM_P1;HPM_P2
2022/05/13 00:00:20;;;;;;;1.75;0.70;;;;;;;;;;5026011;28;20056;-63
2022/05/13 00:02:50;;;;;;;1.65;0.90;;;;;;;;;;5050153;28;20143;-65
2022/05/13 00:05:17;;;;;;;2.70;0.65;;;;;;;;;;5022067;28;20076;-66
2022/05/13 00:07:48;;;;;;;1.85;0.82;;;;;;;;;;5026100;28;20073;-64
2022/05/13 00:10:15;;;;;;;5.45;0.90;;;;;;;;;;5015269;28;20048;-65
2022/05/13 00:12:42;;;;;;;3.10;0.80;;;;;;;;;;5021326;28;20110;-63
2022/05/13 00:15:10;;;;;;;3.08;0.85;;;;;;;;;;5011181;28;20103;-63
2022/05/13 00:17:37;;;;;;;4.43;1.02;;;;;;;;;;5019497;28;20054;-62
2022/05/13 00:20:04;;;;;;;4.60;0.82;;;;;;;;;;5010642;28;20057;-63
2022/05/13 00:22:31;;;;;;;3.67;0.80;;;;;;;;;;5019697;28;20053;-63
2022/05/13 00:24:59;;;;;;;3.00;0.70;;;;;;;;;;5032244;28;20126;-63
2022/05/13 00:27:25;;;;;;;2.60;0.80;;;;;;;;;;5042242;28;20044;-64
2022/05/13 00:29:52;;;;;;;6.50;1.17;;;;;;;;;;5031961;28;20057;-64
2022/05/13 00:32:19;;;;;;;2.50;0.82;;;;;;;;;;5026061;28;20052;-62
2022/05/13 00:34:48;;;;;;;1.80;0.95;;;;;;;;;;5031146;28;20056;-67
2022/05/13 00:37:15;;;;;;;3.80;1.30;;;;;;;;;;5025428;28;20541;-63
2022/05/13 00:39:42;;;;;;;2.50;0.93;;;;;;;;;;5030107;28;20056;-65
2022/05/13 00:42:12;;;;;;;3.65;0.90;;;;;;;;;;5061140;28;20079;-66
2022/05/13 00:44:38;;;;;;;6.13;1.05;;;;;;;;;;5050245;28;20052;-65
2022/05/13 00:47:07;;;;;;;4.75;0.90;;;;;;;;;;5036209;28;20646;-63
2022/05/13 00:49:34;;;;;;;3.25;0.77;;;;;;;;;;5010179;28;20084;-63
2022/05/13 00:52:01;;;;;;;5.15;1.08;;;;;;;;;;5006263;28;20119;-64
2022/05/13 00:54:29;;;;;;;6.07;0.98;;;;;;;;;;5009164;28;20139;-64
2022/05/13 00:56:57;;;;;;;3.90;0.80;;;;;;;;;;5010316;28;20133;-67
2022/05/13 00:59:26;;;;;;;4.97;0.88;;;;;;;;;;5005243;28;20085;-63
2022/05/13 01:01:53;;;;;;;2.90;1.00;;;;;;;;;;5012080;28;20057;-67
2022/05/13 01:04:21;;;;;;;2.08;0.75;;;;;;;;;;4997008;28;20045;-66
2022/05/13 01:06:50;;;;;;;1.63;0.70;;;;;;;;;;5011260;28;20057;-65
2022/05/13 01:09:17;;;;;;;4.60;0.90;;;;;;;;;;5020491;28;20100;-62
2022/05/13 01:11:45;;;;;;;2.70;0.80;;;;;;;;;;4995218;28;20116;-62
2022/05/13 01:14:15;;;;;;;2.85;0.75;;;;;;;;;;5012707;28;20057;-62
2022/05/13 01:19:27;;;;;;;6.45;0.85;;;;;;;;;;5016458;28;20053;-63
2022/05/13 01:21:55;;;;;;;3.55;0.82;;;;;;;;;;5014559;28;20057;-63
2022/05/13 01:24:22;;;;;;;5.07;0.98;;;;;;;;;;5008983;28;20049;-61
2022/05/13 01:26:49;;;;;;;6.10;1.05;;;;;;;;;;5030456;28;20069;-62
2022/05/13 01:29:16;;;;;;;5.00;0.82;;;;;;;;;;4996030;28;20057;-62
2022/05/13 01:31:43;;;;;;;5.03;0.90;;;;;;;;;;5013772;28;20057;-65
2022/05/13 01:34:10;;;;;;;2.65;0.90;;;;;;;;;;5012639;28;20055;-66
2022/05/13 01:36:37;;;;;;;8.90;0.98;;;;;;;;;;5033555;28;20056;-67
2022/05/13 01:39:05;;;;;;;2.85;0.88;;;;;;;;;;5027146;28;20052;-69
2022/05/13 01:41:32;;;;;;;5.55;1.20;;;;;;;;;;5030098;28;20049;-68
2022/05/13 01:43:59;;;;;;;6.63;1.15;;;;;;;;;;5028467;28;20063;-63
2022/05/13 01:46:26;;;;;;;4.32;1.02;;;;;;;;;;5011617;28;20050;-66
2022/05/13 01:48:53;;;;;;;4.38;0.80;;;;;;;;;;5029639;28;20060;-68
2022/05/13 01:51:20;;;;;;;1.48;0.65;;;;;;;;;;5043012;28;20048;-62
2022/05/13 01:53:47;;;;;;;3.55;0.85;;;;;;;;;;5069573;28;20113;-64
2022/05/13 01:56:15;;;;;;;3.95;0.80;;;;;;;;;;5048702;28;20049;-67
2022/05/13 01:58:41;;;;;;;4.97;1.05;;;;;;;;;;5047700;28;20084;-67
2022/05/13 02:01:08;;;;;;;6.10;1.27;;;;;;;;;;5058206;28;20049;-65
2022/05/13 02:03:47;;;;;;;3.60;0.95;;;;;;;;;;5070232;28;20059;-64
2022/05/13 02:06:14;;;;;;;7.95;1.30;;;;;;;;;;5064114;28;20061;-69
2022/05/13 02:08:43;;;;;;;5.07;1.13;;;;;;;;;;5069774;28;20040;-63
2022/05/13 02:11:10;;;;;;;7.00;1.10;;;;;;;;;;5034815;28;20048;-62
2022/05/13 02:13:38;;;;;;;7.13;1.27;;;;;;;;;;5053616;28;20044;-64
2022/05/13 02:16:04;;;;;;;5.93;1.10;;;;;;;;;;5042870;28;20148;-66
2022/05/13 02:18:31;;;;;;;5.93;1.02;;;;;;;;;;5033464;28;20083;-64
2022/05/13 02:20:58;;;;;;;6.43;0.85;;;;;;;;;;5027551;28;20080;-64
2022/05/13 02:23:24;;;;;;;1.95;0.65;;;;;;;;;;5032474;28;20053;-67
2022/05/13 02:25:51;;;;;;;7.68;1.00;;;;;;;;;;5027677;28;20126;-68
2022/05/13 02:28:19;;;;;;;3.85;0.98;;;;;;;;;;5032521;28;20049;-65
2022/05/13 02:30:47;;;;;;;8.93;1.15;;;;;;;;;;5032527;28;20092;-65
2022/05/13 02:33:14;;;;;;;3.38;0.95;;;;;;;;;;5049688;28;20060;-64
2022/05/13 02:35:40;;;;;;;7.97;1.08;;;;;;;;;;5052746;28;20044;-62
2022/05/13 02:38:07;;;;;;;5.63;1.00;;;;;;;;;;5046159;28;20067;-65
2022/05/13 02:43:18;;;;;;;4.00;0.77;;;;;;;;;;5031730;28;20045;-65
2022/05/13 02:45:46;;;;;;;2.38;0.90;;;;;;;;;;5050100;28;20092;-65
2022/05/13 02:48:15;;;;;;;4.07;0.90;;;;;;;;;;5053739;28;20052;-63
2022/05/13 02:50:42;;;;;;;5.03;1.17;;;;;;;;;;5031415;28;20076;-61
2022/05/13 02:53:08;;;;;;;6.25;0.95;;;;;;;;;;5024547;28;20060;-65
2022/05/13 02:55:35;;;;;;;6.88;1.40;;;;;;;;;;5031951;28;20052;-62
2022/05/13 02:58:02;;;;;;;4.35;1.30;;;;;;;;;;5058993;28;20107;-67
2022/05/13 03:00:29;;;;;;;4.28;1.10;;;;;;;;;;5031731;28;20060;-64
2022/05/13 03:02:56;;;;;;;9.77;1.50;;;;;;;;;;5042233;28;20051;-63
2022/05/13 03:05:24;;;;;;;8.23;1.52;;;;;;;;;;5032055;28;20052;-62
2022/05/13 03:07:51;;;;;;;4.78;0.95;;;;;;;;;;5026014;28;20037;-62
2022/05/13 03:10:18;;;;;;;6.35;1.05;;;;;;;;;;5031342;28;20045;-63
2022/05/13 03:12:44;;;;;;;3.45;1.20;;;;;;;;;;5057154;28;20057;-62
2022/05/13 03:15:13;;;;;;;7.03;1.40;;;;;;;;;;5012119;28;20053;-63
2022/05/13 03:17:40;;;;;;;4.88;1.50;;;;;;;;;;5007841;28;20060;-64
2022/05/13 03:20:10;;;;;;;7.07;1.60;;;;;;;;;;5010062;28;20137;-66
2022/05/13 03:22:39;;;;;;;9.40;1.65;;;;;;;;;;5000975;28;20141;-64
2022/05/13 03:25:06;;;;;;;5.63;1.63;;;;;;;;;;5002632;28;20132;-64
2022/05/13 03:27:33;;;;;;;5.70;1.92;;;;;;;;;;5011234;28;20061;-68
2022/05/13 03:29:59;;;;;;;4.97;1.17;;;;;;;;;;5002826;28;20062;-65
2022/05/13 03:32:26;;;;;;;4.38;1.08;;;;;;;;;;5026865;28;20069;-66
2022/05/13 03:34:52;;;;;;;9.70;1.80;;;;;;;;;;5018962;28;20106;-63
2022/05/13 03:37:19;;;;;;;5.25;1.25;;;;;;;;;;5031227;28;20049;-66
2022/05/13 03:39:47;;;;;;;5.57;1.50;;;;;;;;;;5014794;28;20076;-66
2022/05/13 03:42:14;;;;;;;9.30;1.90;;;;;;;;;;5011881;28;20050;-68
2022/05/13 03:44:41;;;;;;;5.60;1.55;;;;;;;;;;5039998;28;20049;-62
2022/05/13 03:47:08;;;;;;;11.88;1.67;;;;;;;;;;5044487;28;20075;-62
2022/05/13 03:49:35;;;;;;;8.88;1.48;;;;;;;;;;5021347;28;20093;-62
2022/05/13 03:52:01;;;;;;;8.35;2.08;;;;;;;;;;5011099;28;20064;-61
2022/05/13 03:54:28;;;;;;;5.57;1.58;;;;;;;;;;5007386;28;20057;-62
2022/05/13 03:56:56;;;;;;;5.03;1.48;;;;;;;;;;5031064;28;20060;-61
2022/05/13 03:59:23;;;;;;;9.95;2.45;;;;;;;;;;5057369;28;20064;-61
2022/05/13 04:01:49;;;;;;;6.25;1.65;;;;;;;;;;5047965;28;20048;-61
2022/05/13 04:04:20;;;;;;;4.65;1.30;;;;;;;;;;5031240;28;20143;-66
2022/05/13 04:09:31;;;;;;;13.07;2.08;;;;;;;;;;5013666;28;20056;-65
2022/05/13 04:17:43;;;;;;;7.72;1.58;;;;;;;;;;4958496;28;20073;-67
2022/05/13 04:20:11;;;;;;;3.85;1.25;;;;;;;;;;5023147;28;20042;-64
2022/05/13 04:22:37;;;;;;;4.45;1.40;;;;;;;;;;5024823;28;20140;-62
2022/05/13 04:25:04;;;;;;;9.20;1.60;;;;;;;;;;5011065;28;20103;-63
2022/05/13 04:27:33;;;;;;;6.20;1.73;;;;;;;;;;5055626;28;20126;-62
2022/05/13 04:30:00;;;;;;;8.52;2.10;;;;;;;;;;5030544;28;20049;-66
2022/05/13 04:32:27;;;;;;;9.30;2.53;;;;;;;;;;5009024;28;20051;-68
2022/05/13 04:34:53;;;;;;;6.95;1.80;;;;;;;;;;5012366;28;20049;-62
2022/05/13 04:37:20;;;;;;;4.05;1.30;;;;;;;;;;5007396;28;20108;-67
2022/05/13 04:39:52;;;;;;;5.55;1.20;;;;;;;;;;5010937;28;20049;-64
2022/05/13 04:45:07;;;;;;;6.20;1.95;;;;;;;;;;5064196;28;20150;-66
2022/05/13 04:50:21;;;;;;;10.52;2.60;;;;;;;;;;5031012;28;20044;-61
2022/05/13 04:52:47;;;;;;;9.43;2.10;;;;;;;;;;5017228;28;20113;-63
2022/05/13 04:55:14;;;;;;;8.55;1.83;;;;;;;;;;5063817;28;20049;-64
2022/05/13 04:57:40;;;;;;;12.70;2.55;;;;;;;;;;5024854;28;20056;-68
2022/05/13 05:00:10;;;;;;;3.78;1.38;;;;;;;;;;5030940;28;20044;-62
2022/05/13 05:02:36;;;;;;;12.55;2.80;;;;;;;;;;5024871;28;20052;-64
2022/05/13 05:05:03;;;;;;;10.30;1.80;;;;;;;;;;5030360;28;20049;-62
2022/05/13 05:07:29;;;;;;;11.43;2.25;;;;;;;;;;5024570;28;20059;-62
2022/05/13 05:09:56;;;;;;;7.35;1.63;;;;;;;;;;5062658;28;20135;-66
2022/05/13 05:12:23;;;;;;;6.28;1.77;;;;;;;;;;5055803;28;20057;-64
2022/05/13 05:14:49;;;;;;;13.88;2.80;;;;;;;;;;5010375;28;20506;-64
2022/05/13 05:17:17;;;;;;;9.38;2.30;;;;;;;;;;5009313;28;20053;-64
2022/05/13 05:19:44;;;;;;;6.07;2.50;;;;;;;;;;5026633;28;20049;-63
2022/05/13 05:22:11;;;;;;;6.03;1.95;;;;;;;;;;5026542;28;20053;-64
2022/05/13 05:24:37;;;;;;;10.85;2.50;;;;;;;;;;5020501;28;20505;-65
2022/05/13 05:27:05;;;;;;;11.02;2.47;;;;;;;;;;5009914;28;20049;-64
2022/05/13 05:29:32;;;;;;;10.60;2.42;;;;;;;;;;5004858;28;20050;-65
2022/05/13 05:31:58;;;;;;;11.60;2.15;;;;;;;;;;5026456;28;20049;-63
2022/05/13 05:34:26;;;;;;;14.40;3.13;;;;;;;;;;5013016;28;20125;-63
2022/05/13 05:36:54;;;;;;;12.05;2.45;;;;;;;;;;5043051;28;20099;-66
2022/05/13 05:39:21;;;;;;;5.47;1.80;;;;;;;;;;5014528;28;20049;-65
2022/05/13 05:41:48;;;;;;;8.05;2.50;;;;;;;;;;5029444;28;20087;-62
2022/05/13 05:44:14;;;;;;;12.23;2.50;;;;;;;;;;5023598;28;20041;-66
2022/05/13 05:46:41;;;;;;;11.85;2.63;;;;;;;;;;5030427;28;20053;-66
2022/05/13 05:49:08;;;;;;;9.77;2.53;;;;;;;;;;5022996;28;20056;-64
2022/05/13 05:51:36;;;;;;;11.27;2.50;;;;;;;;;;5015326;28;20057;-67
2022/05/13 05:59:30;;;;;;;10.85;2.67;;;;;;;;;;5026390;28;20068;-63
2022/05/13 06:01:57;;;;;;;10.68;2.75;;;;;;;;;;5033131;28;20069;-63
2022/05/13 06:04:23;;;;;;;11.93;2.97;;;;;;;;;;5027537;28;20156;-61
2022/05/13 06:06:51;;;;;;;6.35;2.30;;;;;;;;;;5031405;28;20048;-61
2022/05/13 06:09:19;;;;;;;12.32;3.50;;;;;;;;;;5035398;28;20064;-62
2022/05/13 06:11:46;;;;;;;14.60;3.72;;;;;;;;;;5031506;28;20057;-64
2022/05/13 06:14:13;;;;;;;11.95;2.65;;;;;;;;;;5032762;28;20049;-62
2022/05/13 06:16:39;;;;;;;11.23;2.75;;;;;;;;;;5026706;28;20072;-64
2022/05/13 06:19:06;;;;;;;10.07;2.80;;;;;;;;;;5032211;28;20055;-63
2022/05/13 06:21:35;;;;;;;17.13;3.28;;;;;;;;;;5027001;28;20057;-62
2022/05/13 06:24:03;;;;;;;12.07;2.70;;;;;;;;;;5029632;28;20084;-68
2022/05/13 06:26:31;;;;;;;11.50;3.30;;;;;;;;;;5030293;28;20103;-63
2022/05/13 06:29:02;;;;;;;10.48;2.75;;;;;;;;;;5032050;28;20057;-61
2022/05/13 06:31:28;;;;;;;9.15;2.45;;;;;;;;;;5025973;28;20057;-62
2022/05/13 06:33:55;;;;;;;11.77;2.65;;;;;;;;;;5048651;28;20052;-62
2022/05/13 06:36:22;;;;;;;6.50;3.00;;;;;;;;;;5026185;28;20095;-62
2022/05/13 06:38:49;;;;;;;13.80;3.58;;;;;;;;;;5031995;28;20112;-61
2022/05/13 06:41:17;;;;;;;23.02;4.93;;;;;;;;;;5025686;28;20053;-61
2022/05/13 06:43:44;;;;;;;13.35;3.33;;;;;;;;;;5031923;28;20061;-64
2022/05/13 06:46:11;;;;;;;10.43;3.83;;;;;;;;;;5022962;28;20064;-62
2022/05/13 06:48:37;;;;;;;17.15;4.38;;;;;;;;;;4993820;28;20177;-64
2022/05/13 06:51:04;;;;;;;15.60;3.80;;;;;;;;;;5002896;28;20053;-64
2022/05/13 06:53:31;;;;;;;9.55;2.88;;;;;;;;;;5032816;28;20056;-65
2022/05/13 06:55:58;;;;;;;15.65;5.07;;;;;;;;;;5034189;28;20061;-68
2022/05/13 06:58:27;;;;;;;13.43;3.60;;;;;;;;;;5017099;28;20049;-62
2022/05/13 07:00:53;;;;;;;14.52;3.25;;;;;;;;;;5008033;28;20133;-63
2022/05/13 07:03:20;;;;;;;11.82;3.70;;;;;;;;;;5001516;28;20081;-66
2022/05/13 07:05:47;;;;;;;10.88;3.63;;;;;;;;;;5016227;28;20049;-66
2022/05/13 07:08:14;;;;;;;13.18;4.00;;;;;;;;;;5002400;28;20045;-63
2022/05/13 07:10:41;;;;;;;13.40;3.95;;;;;;;;;;5027549;28;20049;-62
2022/05/13 07:13:08;;;;;;;7.65;2.97;;;;;;;;;;5019192;28;20064;-65
2022/05/13 07:15:36;;;;;;;13.73;3.90;;;;;;;;;;5015004;28;20065;-65
2022/05/13 07:18:03;;;;;;;16.45;3.83;;;;;;;;;;5012858;28;20114;-61
2022/05/13 07:20:30;;;;;;;15.40;4.00;;;;;;;;;;5032015;28;20056;-63
2022/05/13 07:22:58;;;;;;;15.63;3.90;;;;;;;;;;5018655;28;20095;-65
2022/05/13 07:25:26;;;;;;;22.08;5.10;;;;;;;;;;5010723;28;20053;-62
2022/05/13 07:27:53;;;;;;;15.75;4.28;;;;;;;;;;5004076;28;20056;-64
2022/05/13 07:30:19;;;;;;;18.13;4.63;;;;;;;;;;4995387;28;20061;-63
2022/05/13 07:32:47;;;;;;;13.38;4.22;;;;;;;;;;5007909;28;20124;-62
2022/05/13 07:35:13;;;;;;;14.13;4.18;;;;;;;;;;5048329;28;20083;-65
2022/05/13 07:37:40;;;;;;;14.02;4.60;;;;;;;;;;5031381;28;20102;-62
2022/05/13 07:42:51;;;;;;;14.13;4.05;;;;;;;;;;5030515;28;20049;-61
2022/05/13 07:45:17;;;;;;;12.13;3.33;;;;;;;;;;5024576;28;20053;-65
2022/05/13 07:47:44;;;;;;;21.92;4.65;;;;;;;;;;5041834;28;20048;-67
2022/05/13 07:50:14;;;;;;;21.20;5.00;;;;;;;;;;5043848;28;20079;-66
2022/05/13 07:52:40;;;;;;;12.43;4.15;;;;;;;;;;5051367;28;20044;-64
2022/05/13 07:55:08;;;;;;;13.75;3.80;;;;;;;;;;5029259;28;20048;-64
2022/05/13 07:57:38;;;;;;;14.48;4.65;;;;;;;;;;5030765;28;20060;-65
2022/05/13 08:02:49;;;;;;;13.18;3.55;;;;;;;;;;5038157;28;20106;-61
2022/05/13 08:05:17;;;;;;;9.85;3.13;;;;;;;;;;5037102;28;20052;-63
2022/05/13 08:07:43;;;;;;;9.18;2.90;;;;;;;;;;5049943;28;20056;-66
2022/05/13 08:10:10;;;;;;;16.98;3.70;;;;;;;;;;5033610;28;20049;-64
2022/05/13 08:12:37;;;;;;;17.42;4.28;;;;;;;;;;5046937;28;20103;-61
2022/05/13 08:15:04;;;;;;;12.95;3.33;;;;;;;;;;5024855;28;20060;-64
2022/05/13 08:17:33;;;;;;;12.55;3.20;;;;;;;;;;5030696;28;20063;-64
2022/05/13 08:20:00;;;;;;;16.42;3.53;;;;;;;;;;5020663;28;20391;-63
2022/05/13 08:22:28;;;;;;;13.82;3.17;;;;;;;;;;5029888;28;20077;-63
2022/05/13 08:24:55;;;;;;;8.10;2.80;;;;;;;;;;5024363;28;20057;-61
2022/05/13 08:27:21;;;;;;;15.65;3.10;;;;;;;;;;5030568;28;20060;-61
2022/05/13 08:29:52;;;;;;;10.60;2.28;;;;;;;;;;5025591;28;20056;-65
2022/05/13 08:32:19;;;;;;;10.93;2.50;;;;;;;;;;5050882;28;20079;-63
2022/05/13 08:34:46;;;;;;;8.68;1.80;;;;;;;;;;5050567;28;20048;-62
2022/05/13 08:37:12;;;;;;;4.72;1.17;;;;;;;;;;5042660;28;20068;-60
2022/05/13 08:39:41;;;;;;;6.25;1.20;;;;;;;;;;5030152;28;20059;-65
2022/05/13 08:42:14;;;;;;;4.53;1.08;;;;;;;;;;5024109;28;20118;-61
2022/05/13 08:44:40;;;;;;;6.30;1.38;;;;;;;;;;5029057;28;20114;-63
2022/05/13 08:47:11;;;;;;;7.07;1.30;;;;;;;;;;5032803;28;20075;-60
2022/05/13 08:49:45;;;;;;;5.45;1.40;;;;;;;;;;5030263;28;20103;-60
2022/05/13 08:55:00;;;;;;;6.15;1.10;;;;;;;;;;5026973;28;20053;-60
2022/05/13 08:57:28;;;;;;;5.30;1.20;;;;;;;;;;5018336;28;20041;-60
2022/05/13 08:59:57;;;;;;;6.30;1.35;;;;;;;;;;5029902;28;20049;-61
2022/05/13 09:02:28;;;;;;;6.00;1.30;;;;;;;;;;5023862;28;20045;-61
2022/05/13 09:04:59;;;;;;;8.25;1.33;;;;;;;;;;5009231;28;20076;-61
2022/05/13 09:07:26;;;;;;;6.32;1.00;;;;;;;;;;5011745;28;20137;-61
2022/05/13 09:09:58;;;;;;;7.47;1.38;;;;;;;;;;5007110;28;20061;-63
2022/05/13 09:12:28;;;;;;;5.18;1.23;;;;;;;;;;4988208;28;20144;-62
2022/05/13 09:14:58;;;;;;;5.47;1.45;;;;;;;;;;5008322;28;20053;-61
2022/05/13 09:17:42;;;;;;;8.48;1.40;;;;;;;;;;5009866;28;20045;-62
2022/05/13 09:20:10;;;;;;;5.45;1.05;;;;;;;;;;5014069;28;20061;-63
2022/05/13 09:22:39;;;;;;;8.85;1.25;;;;;;;;;;5018783;28;20080;-62
2022/05/13 09:25:07;;;;;;;6.88;1.17;;;;;;;;;;5013324;28;20053;-64
2022/05/13 09:27:48;;;;;;;7.20;1.30;;;;;;;;;;5013763;28;20049;-61
2022/05/13 09:30:18;;;;;;;4.30;1.30;;;;;;;;;;5032471;28;20057;-61
2022/05/13 09:32:45;;;;;;;6.10;1.13;;;;;;;;;;5005963;28;20072;-66
2022/05/13 09:35:15;;;;;;;7.22;1.40;;;;;;;;;;5008887;28;20076;-64
2022/05/13 09:37:43;;;;;;;4.32;1.20;;;;;;;;;;5005265;28;20087;-62
2022/05/13 09:40:11;;;;;;;16.85;2.10;;;;;;;;;;5004852;28;20046;-65
2022/05/13 09:42:39;;;;;;;7.25;1.30;;;;;;;;;;5000007;28;20074;-62
2022/05/13 09:45:19;;;;;;;4.82;1.17;;;;;;;;;;5010866;28;20060;-63
2022/05/13 09:47:47;;;;;;;3.17;1.20;;;;;;;;;;5030913;28;20088;-61
2022/05/13 09:50:19;;;;;;;3.38;1.30;;;;;;;;;;5028132;28;20133;-65
2022/05/13 09:52:46;;;;;;;17.45;2.10;;;;;;;;;;5013701;28;20059;-61
2022/05/13 09:55:15;;;;;;;29.05;3.08;;;;;;;;;;5022880;28;20058;-61
2022/05/13 09:57:42;;;;;;;9.98;1.75;;;;;;;;;;5013654;28;20053;-66
2022/05/13 10:00:15;;;;;;;10.07;1.75;;;;;;;;;;5006859;28;20053;-65
2022/05/13 10:02:44;;;;;;;6.70;1.20;;;;;;;;;;5013383;28;20049;-61
2022/05/13 10:05:13;;;;;;;4.28;1.15;;;;;;;;;;5002003;28;20057;-61
2022/05/13 10:07:43;;;;;;;14.15;2.42;;;;;;;;;;5019391;28;20050;-62
2022/05/13 10:15:50;;;;;;;15.18;2.08;;;;;;;;;;5004007;28;20054;-61
2022/05/13 10:18:21;;;;;;;7.68;1.45;;;;;;;;;;5027090;28;20061;-61
2022/05/13 10:20:49;;;;;;;4.75;1.30;;;;;;;;;;5001723;28;20131;-63
2022/05/13 10:23:18;;;;;;;4.72;1.10;;;;;;;;;;5017080;28;20121;-61
2022/05/13 10:26:03;;;;;;;3.08;1.15;;;;;;;;;;5015540;28;20077;-60
2022/05/13 10:28:32;;;;;;;3.45;1.00;;;;;;;;;;5023189;28;20076;-61
2022/05/13 10:31:03;;;;;;;5.60;1.40;;;;;;;;;;4997549;28;20050;-62
2022/05/13 10:33:34;;;;;;;6.82;1.20;;;;;;;;;;5015036;28;20127;-61
2022/05/13 10:36:03;;;;;;;4.90;1.10;;;;;;;;;;5002148;28;20053;-61
2022/05/13 10:38:31;;;;;;;5.43;1.40;;;;;;;;;;5006663;28;20049;-62
2022/05/13 10:41:04;;;;;;;6.18;1.20;;;;;;;;;;5006465;28;20049;-65
2022/05/13 10:43:39;;;;;;;4.32;1.08;;;;;;;;;;5010403;28;20061;-64
2022/05/13 10:46:11;;;;;;;13.93;1.60;;;;;;;;;;5017796;28;20055;-62
2022/05/13 10:48:40;;;;;;;16.35;1.73;;;;;;;;;;5030024;28;20075;-63
2022/05/13 10:51:10;;;;;;;10.27;1.30;;;;;;;;;;5024613;28;20103;-63
2022/05/13 10:53:45;;;;;;;10.43;1.27;;;;;;;;;;5021817;28;20088;-62
2022/05/13 10:56:15;;;;;;;4.00;1.20;;;;;;;;;;4999387;28;20150;-61
2022/05/13 10:58:45;;;;;;;3.13;1.00;;;;;;;;;;5012221;28;20053;-65
2022/05/13 11:01:17;;;;;;;6.75;1.17;;;;;;;;;;5009933;28;20126;-63
2022/05/13 11:03:53;;;;;;;5.95;1.23;;;;;;;;;;5030804;28;20072;-62
2022/05/13 11:06:26;;;;;;;3.33;0.82;;;;;;;;;;4995353;28;20045;-60
2022/05/13 11:08:57;;;;;;;9.63;1.25;;;;;;;;;;5012065;28;20045;-60
2022/05/13 11:11:34;;;;;;;7.88;1.23;;;;;;;;;;5006420;28;20069;-61
2022/05/13 11:14:04;;;;;;;5.03;1.10;;;;;;;;;;5012027;28;20045;-63
2022/05/13 11:16:37;;;;;;;4.03;1.30;;;;;;;;;;5007625;28;20063;-62
2022/05/13 11:19:11;;;;;;;8.50;1.63;;;;;;;;;;5048621;28;20056;-63
2022/05/13 11:21:40;;;;;;;5.68;1.40;;;;;;;;;;5024604;28;20103;-63
2022/05/13 11:27:01;;;;;;;3.50;1.02;;;;;;;;;;5022165;28;20057;-61
2022/05/13 11:29:31;;;;;;;3.92;1.10;;;;;;;;;;5011288;28;20132;-62
2022/05/13 11:32:03;;;;;;;3.15;1.20;;;;;;;;;;5006425;28;20053;-61
2022/05/13 11:34:38;;;;;;;7.05;0.90;;;;;;;;;;5012075;28;20136;-64
2022/05/13 11:37:06;;;;;;;7.35;1.42;;;;;;;;;;4997886;28;20065;-61
2022/05/13 11:39:45;;;;;;;6.20;1.35;;;;;;;;;;5016779;28;20145;-61
2022/05/13 11:42:26;;;;;;;11.45;1.20;;;;;;;;;;5011734;28;20073;-62
2022/05/13 11:45:02;;;;;;;3.63;1.30;;;;;;;;;;5007734;28;20057;-62
2022/05/13 11:47:34;;;;;;;4.57;1.00;;;;;;;;;;5009608;28;20057;-61
2022/05/13 11:50:02;;;;;;;6.65;1.17;;;;;;;;;;5015961;28;20060;-62
2022/05/13 11:52:30;;;;;;;6.60;1.25;;;;;;;;;;5023488;28;20061;-62
2022/05/13 11:55:18;;;;;;;7.55;1.23;;;;;;;;;;5019542;28;20053;-62
2022/05/13 11:57:47;;;;;;;6.27;1.20;;;;;;;;;;5037437;28;20049;-62
2022/05/13 12:00:35;;;;;;;6.10;1.10;;;;;;;;;;5032815;28;20382;-65
2022/05/13 12:03:04;;;;;;;5.68;1.00;;;;;;;;;;5001419;28;20148;-61
2022/05/13 12:05:38;;;;;;;7.88;1.23;;;;;;;;;;5023866;28;20053;-66
2022/05/13 12:08:15;;;;;;;8.68;1.10;;;;;;;;;;5023823;28;20061;-64
2022/05/13 12:10:46;;;;;;;7.13;1.27;;;;;;;;;;5031258;28;20049;-61
2022/05/13 12:13:21;;;;;;;2.22;0.82;;;;;;;;;;5011507;28;20149;-64
2022/05/13 12:15:58;;;;;;;8.80;1.00;;;;;;;;;;5035002;28;20063;-64
2022/05/13 12:18:31;;;;;;;6.93;1.58;;;;;;;;;;5051798;28;20044;-63
2022/05/13 12:21:14;;;;;;;21.60;5.47;;;;;;;;;;5042269;28;20056;-63
2022/05/13 12:23:44;;;;;;;14.02;4.57;;;;;;;;;;5047452;28;20049;-65
2022/05/13 12:26:11;;;;;;;7.88;1.70;;;;;;;;;;5025025;28;20369;-62
2022/05/13 12:28:59;;;;;;;12.50;1.50;;;;;;;;;;5030479;28;20053;-62
2022/05/13 12:31:37;;;;;;;6.97;1.33;;;;;;;;;;5024756;28;20079;-63
2022/05/13 12:39:46;;;;;;;5.13;1.45;;;;;;;;;;5040764;28;20057;-63
2022/05/13 12:42:14;;;;;;;12.07;2.33;;;;;;;;;;5033131;28;20052;-62
2022/05/13 12:44:42;;;;;;;6.68;1.13;;;;;;;;;;5062741;28;20082;-63
2022/05/13 12:47:20;;;;;;;9.30;1.63;;;;;;;;;;5025117;28;20117;-61
2022/05/13 12:49:54;;;;;;;8.73;1.33;;;;;;;;;;5026315;28;20049;-63
2022/05/13 12:52:33;;;;;;;3.47;1.15;;;;;;;;;;5044805;28;20052;-61
2022/05/13 12:55:02;;;;;;;5.95;0.98;;;;;;;;;;5028028;28;20060;-62
2022/05/13 12:57:32;;;;;;;7.53;1.20;;;;;;;;;;5007160;28;20057;-62
2022/05/13 12:59:59;;;;;;;4.95;1.17;;;;;;;;;;5009768;28;20041;-62
2022/05/13 13:02:28;;;;;;;2.95;1.00;;;;;;;;;;5036858;28;20049;-64
2022/05/13 13:04:57;;;;;;;4.18;1.20;;;;;;;;;;5008923;28;20072;-62
2022/05/13 13:07:27;;;;;;;5.38;1.40;;;;;;;;;;5004689;28;20049;-62
2022/05/13 13:09:54;;;;;;;4.95;1.63;;;;;;;;;;5042888;28;20067;-63
2022/05/13 13:12:25;;;;;;;7.10;1.35;;;;;;;;;;5004794;28;20049;-62
2022/05/13 13:14:55;;;;;;;9.10;1.50;;;;;;;;;;5010197;28;20180;-63
2022/05/13 13:17:28;;;;;;;4.25;1.20;;;;;;;;;;5016606;28;20053;-63
2022/05/13 13:19:57;;;;;;;6.35;1.20;;;;;;;;;;5029677;28;20057;-63
2022/05/13 13:22:27;;;;;;;7.00;1.30;;;;;;;;;;5020306;28;20053;-61
2022/05/13 13:24:53;;;;;;;6.75;0.98;;;;;;;;;;5028608;28;20053;-61
2022/05/13 13:27:31;;;;;;;4.05;1.10;;;;;;;;;;5022755;28;20049;-62
2022/05/13 13:30:02;;;;;;;5.93;1.10;;;;;;;;;;5030413;28;20092;-62
2022/05/13 13:32:29;;;;;;;4.00;1.35;;;;;;;;;;5023135;28;20046;-61
2022/05/13 13:34:56;;;;;;;7.85;1.33;;;;;;;;;;5027196;28;20107;-63
2022/05/13 13:37:24;;;;;;;7.23;1.13;;;;;;;;;;5021539;28;20060;-62
2022/05/13 13:39:54;;;;;;;4.30;0.98;;;;;;;;;;5030159;28;20133;-61
2022/05/13 13:42:20;;;;;;;11.82;1.10;;;;;;;;;;5024240;28;20037;-61
2022/05/13 13:44:48;;;;;;;4.25;1.00;;;;;;;;;;5030079;28;20057;-62
2022/05/13 13:47:25;;;;;;;3.67;0.83;;;;;;;;;;5021861;28;20065;-61
2022/05/13 13:49:53;;;;;;;2.65;1.00;;;;;;;;;;5026232;28;20060;-62
2022/05/13 13:52:22;;;;;;;11.02;1.73;;;;;;;;;;5020303;28;20052;-61
2022/05/13 13:54:51;;;;;;;7.13;1.48;;;;;;;;;;5025138;28;20123;-65
2022/05/13 13:57:34;;;;;;;5.40;1.10;;;;;;;;;;5025634;28;20074;-62
2022/05/13 14:00:05;;;;;;;4.47;1.30;;;;;;;;;;5059136;28;20056;-63
2022/05/13 14:02:33;;;;;;;4.25;0.82;;;;;;;;;;5013883;28;20053;-62
2022/05/13 14:05:00;;;;;;;7.55;1.05;;;;;;;;;;5013291;28;20044;-61
2022/05/13 14:07:27;;;;;;;3.47;0.98;;;;;;;;;;5026311;28;20060;-61
2022/05/13 14:09:57;;;;;;;3.43;0.83;;;;;;;;;;5023973;28;20045;-61
2022/05/13 14:12:24;;;;;;;5.38;1.20;;;;;;;;;;5028639;28;20041;-61
2022/05/13 14:14:55;;;;;;;4.00;1.00;;;;;;;;;;5024905;28;20095;-62
2022/05/13 14:17:24;;;;;;;4.97;0.98;;;;;;;;;;5045049;28;20053;-61
2022/05/13 14:19:52;;;;;;;7.65;1.10;;;;;;;;;;5022507;28;20160;-61
2022/05/13 14:22:19;;;;;;;5.32;1.30;;;;;;;;;;5028903;28;20052;-64
2022/05/13 14:24:49;;;;;;;5.88;1.30;;;;;;;;;;5039946;28;20053;-61
2022/05/13 14:27:16;;;;;;;8.25;1.02;;;;;;;;;;5029605;28;20053;-62
2022/05/13 14:29:46;;;;;;;6.97;1.30;;;;;;;;;;5022360;28;20064;-62
2022/05/13 14:32:15;;;;;;;4.57;1.40;;;;;;;;;;5029128;28;20136;-61
2022/05/13 14:34:42;;;;;;;3.35;1.35;;;;;;;;;;5024283;28;20053;-64
2022/05/13 14:37:09;;;;;;;12.70;1.40;;;;;;;;;;5029251;28;20063;-65
2022/05/13 14:39:48;;;;;;;6.88;1.23;;;;;;;;;;5021697;28;20056;-64
2022/05/13 14:42:17;;;;;;;6.38;1.52;;;;;;;;;;5029824;28;20063;-64
2022/05/13 14:44:45;;;;;;;5.68;1.25;;;;;;;;;;5024776;28;20045;-64
2022/05/13 14:47:20;;;;;;;6.50;1.58;;;;;;;;;;5028746;28;20122;-62
2022/05/13 14:49:52;;;;;;;5.57;1.77;;;;;;;;;;5023689;28;20045;-61
2022/05/13 14:52:23;;;;;;;7.72;1.80;;;;;;;;;;5030664;28;20057;-61
2022/05/13 14:54:51;;;;;;;12.50;1.60;;;;;;;;;;5023295;28;20044;-65
2022/05/13 14:57:18;;;;;;;7.57;2.33;;;;;;;;;;5030410;28;20061;-64
2022/05/13 14:59:56;;;;;;;8.95;1.50;;;;;;;;;;5029620;28;20059;-61
2022/05/13 15:02:35;;;;;;;8.77;1.60;;;;;;;;;;5028252;28;20048;-62
2022/05/13 15:05:09;;;;;;;6.18;1.50;;;;;;;;;;5028330;28;20137;-62
2022/05/13 15:07:39;;;;;;;11.82;2.38;;;;;;;;;;5061815;28;20052;-61
2022/05/13 15:10:07;;;;;;;11.15;2.63;;;;;;;;;;5028927;28;20053;-63
2022/05/13 15:12:34;;;;;;;;;;;;;;;;;;5039366;28;20085;-62
2022/05/13 15:15:01;;;;;;;4.55;2.13;;;;;;;;;;5029217;28;19936;-61
2022/05/13 15:17:28;;;;;;;7.03;2.22;;;;;;;;;;5021303;28;20057;-62
2022/05/13 15:19:57;;;;;;;8.38;2.83;;;;;;;;;;5028878;28;20133;-62
2022/05/13 15:22:27;;;;;;;12.80;2.53;;;;;;;;;;5020385;28;20045;-65
2022/05/13 15:24:54;;;;;;;7.88;2.53;;;;;;;;;;5028530;28;20045;-61
2022/05/13 15:27:24;;;;;;;8.00;2.15;;;;;;;;;;5023759;28;20083;-61
2022/05/13 15:29:52;;;;;;;7.55;1.77;;;;;;;;;;5025815;28;20137;-63
2022/05/13 15:32:20;;;;;;;5.05;1.77;;;;;;;;;;5023383;28;20056;-61
2022/05/13 15:34:46;;;;;;;8.10;1.77;;;;;;;;;;5029967;28;20073;-61
2022/05/13 15:37:15;;;;;;;8.27;1.88;;;;;;;;;;5025586;28;20059;-61